Time;durP1;ratioP1;P1;durP2;ratioP2;P2;SDS_P1;SDS_P2;PMS_P1;PMS_P2;Temp;Humidity;BMP_temperature;BMP_pressure;BME280_temperature;BME280_humidity;BME280_pressure;Samples;Min_cycle;Max_cycle;Signal;HPM_P1;HPM_P2
2023/05/29 00:02:37;;;;;;;10.60;2.60;;;;;;;;;;8299245;28;20045;-60
2023/05/29 00:06:38;;;;;;;4.40;2.50;;;;;;;;;;8302416;28;20068;-61
2023/05/29 00:10:38;;;;;;;3.33;2.30;;;;;;;;;;8302966;28;20026;-60
2023/05/29 00:14:38;;;;;;;5.32;2.42;;;;;;;;;;8299207;28;20025;-61
2023/05/29 00:18:45;;;;;;;3.63;2.30;;;;;;;;;;8302057;28;20276;-60
2023/05/29 00:22:45;;;;;;;4.32;2.50;;;;;;;;;;8301992;28;20030;-60
2023/05/29 00:26:45;;;;;;;4.50;2.40;;;;;;;;;;8300017;28;20132;-60
2023/05/29 00:30:46;;;;;;;2.92;2.20;;;;;;;;;;8301396;28;20558;-60
2023/05/29 00:34:46;;;;;;;4.50;2.38;;;;;;;;;;8303779;28;20116;-60
2023/05/29 00:38:47;;;;;;;6.45;2.30;;;;;;;;;;8300292;28;20104;-59
2023/05/29 00:42:47;;;;;;;4.30;2.60;;;;;;;;;;8303695;28;20025;-60
2023/05/29 00:46:49;;;;;;;3.45;2.30;;;;;;;;;;8301338;28;20319;-59
2023/05/29 00:50:49;;;;;;;5.85;2.30;;;;;;;;;;8298796;28;20039;-61
2023/05/29 00:54:50;;;;;;;2.70;2.30;;;;;;;;;;8301433;28;20038;-60
2023/05/29 00:58:51;;;;;;;4.88;2.55;;;;;;;;;;8298435;28;20032;-59
2023/05/29 01:02:52;;;;;;;3.65;2.25;;;;;;;;;;8301528;28;20067;-59
2023/05/29 01:06:52;;;;;;;3.78;2.30;;;;;;;;;;8301460;28;20036;-60
2023/05/29 01:10:55;;;;;;;5.05;2.33;;;;;;;;;;8300261;28;20060;-59
2023/05/29 01:14:55;;;;;;;5.30;2.22;;;;;;;;;;8301294;28;20033;-59
2023/05/29 01:19:10;;;;;;;5.57;2.40;;;;;;;;;;8300862;28;20569;-59
2023/05/29 01:23:29;;;;;;;3.72;2.17;;;;;;;;;;8301983;28;20032;-59
2023/05/29 01:27:30;;;;;;;4.40;2.15;;;;;;;;;;8295193;28;20826;-59
2023/05/29 01:31:31;;;;;;;4.40;2.47;;;;;;;;;;8300874;28;20029;-59
2023/05/29 01:35:31;;;;;;;3.75;2.42;;;;;;;;;;8298070;28;20776;-59
2023/05/29 01:39:32;;;;;;;4.47;2.17;;;;;;;;;;8297571;28;20783;-59
2023/05/29 01:43:33;;;;;;;4.93;2.40;;;;;;;;;;8298488;28;20035;-59
2023/05/29 01:47:34;;;;;;;5.38;2.67;;;;;;;;;;8297324;28;20083;-59
2023/05/29 01:51:35;;;;;;;3.55;2.20;;;;;;;;;;8298459;28;21522;-59
2023/05/29 01:55:35;;;;;;;3.55;2.25;;;;;;;;;;8300139;28;20866;-59
2023/05/29 01:59:37;;;;;;;2.80;2.05;;;;;;;;;;8298275;28;20036;-59
2023/05/29 02:03:37;;;;;;;5.93;2.20;;;;;;;;;;8300578;28;20132;-59
2023/05/29 02:07:38;;;;;;;2.80;2.10;;;;;;;;;;8296695;28;20807;-59
2023/05/29 02:11:38;;;;;;;3.47;2.28;;;;;;;;;;8298041;28;20029;-60
2023/05/29 02:15:38;;;;;;;3.67;2.22;;;;;;;;;;8298270;28;20044;-59
2023/05/29 02:19:38;;;;;;;4.30;2.53;;;;;;;;;;8297802;28;20025;-59
2023/05/29 02:23:39;;;;;;;3.58;2.10;;;;;;;;;;8298421;28;20050;-58
2023/05/29 02:27:39;;;;;;;3.65;2.60;;;;;;;;;;8298836;28;20029;-59
2023/05/29 02:31:39;;;;;;;4.68;1.95;;;;;;;;;;8299776;28;20041;-60
2023/05/29 02:35:40;;;;;;;5.35;2.47;;;;;;;;;;8298769;28;20794;-59
2023/05/29 02:39:40;;;;;;;5.30;2.40;;;;;;;;;;8297017;28;20036;-59
2023/05/29 02:43:40;;;;;;;3.70;2.22;;;;;;;;;;8298849;28;20414;-59
2023/05/29 02:47:40;;;;;;;6.07;2.58;;;;;;;;;;8296523;28;20038;-59
2023/05/29 02:51:41;;;;;;;3.85;2.22;;;;;;;;;;8298932;28;20056;-59
2023/05/29 02:55:42;;;;;;;3.38;2.40;;;;;;;;;;8298478;28;20120;-59
2023/05/29 02:59:44;;;;;;;4.55;2.20;;;;;;;;;;8296601;28;20026;-59
2023/05/29 03:03:44;;;;;;;3.92;2.40;;;;;;;;;;8297384;28;20175;-59
2023/05/29 03:07:44;;;;;;;4.87;2.50;;;;;;;;;;8295085;28;20021;-60
2023/05/29 03:11:45;;;;;;;5.90;2.35;;;;;;;;;;8297248;28;20033;-59
2023/05/29 03:15:45;;;;;;;7.35;2.35;;;;;;;;;;8298090;28;20041;-60
2023/05/29 03:19:45;;;;;;;3.13;2.20;;;;;;;;;;8297780;28;20490;-59
2023/05/29 03:23:45;;;;;;;3.75;2.45;;;;;;;;;;8305211;28;20444;-59
2023/05/29 03:27:46;;;;;;;8.30;2.63;;;;;;;;;;8304134;28;20025;-59
2023/05/29 03:31:46;;;;;;;5.07;2.53;;;;;;;;;;8303684;28;20869;-59
2023/05/29 03:35:46;;;;;;;4.10;2.60;;;;;;;;;;8303192;28;20026;-59
2023/05/29 03:39:46;;;;;;;6.53;2.67;;;;;;;;;;8303753;28;20039;-59
2023/05/29 03:43:46;;;;;;;3.85;2.40;;;;;;;;;;8304082;28;20627;-59
2023/05/29 03:47:46;;;;;;;3.95;2.38;;;;;;;;;;8303184;28;20056;-59
2023/05/29 03:51:47;;;;;;;5.63;2.22;;;;;;;;;;8303300;28;20033;-59
2023/05/29 03:55:47;;;;;;;5.47;2.60;;;;;;;;;;8303183;28;20033;-59
2023/05/29 03:59:47;;;;;;;4.25;2.47;;;;;;;;;;8301701;28;20029;-59
2023/05/29 04:03:47;;;;;;;5.70;2.38;;;;;;;;;;8303013;28;20037;-60
2023/05/29 04:07:47;;;;;;;4.82;2.35;;;;;;;;;;8303389;28;20100;-59
2023/05/29 04:11:48;;;;;;;3.15;2.20;;;;;;;;;;8305698;28;20033;-58
2023/05/29 04:15:48;;;;;;;6.72;2.30;;;;;;;;;;8302001;28;20732;-59
2023/05/29 04:19:48;;;;;;;3.13;2.30;;;;;;;;;;8301695;28;20040;-59
2023/05/29 04:23:48;;;;;;;4.15;2.30;;;;;;;;;;8303214;28;20029;-59
2023/05/29 04:27:48;;;;;;;4.75;2.35;;;;;;;;;;8301662;28;20076;-59
2023/05/29 04:31:48;;;;;;;4.55;2.42;;;;;;;;;;8300478;28;20041;-59
2023/05/29 04:35:49;;;;;;;4.75;2.30;;;;;;;;;;8301081;28;20029;-59
2023/05/29 04:39:51;;;;;;;7.53;2.40;;;;;;;;;;8300318;28;20065;-59
2023/05/29 04:43:51;;;;;;;3.53;2.30;;;;;;;;;;8302168;28;20560;-59
2023/05/29 04:47:54;;;;;;;4.13;2.40;;;;;;;;;;8301629;28;20036;-59
2023/05/29 04:51:54;;;;;;;7.38;2.60;;;;;;;;;;8301281;28;20061;-59
2023/05/29 04:55:54;;;;;;;4.13;2.55;;;;;;;;;;8300507;28;20036;-59
2023/05/29 04:59:55;;;;;;;5.30;2.60;;;;;;;;;;8299385;28;20669;-59
2023/05/29 05:03:55;;;;;;;3.95;2.55;;;;;;;;;;8301320;28;20098;-59
2023/05/29 05:07:55;;;;;;;6.63;2.60;;;;;;;;;;8302117;28;20025;-59
2023/05/29 05:11:56;;;;;;;4.10;2.33;;;;;;;;;;8300505;28;20061;-59
2023/05/29 05:15:56;;;;;;;3.35;2.42;;;;;;;;;;8301526;28;20037;-59
2023/05/29 05:19:57;;;;;;;5.97;2.67;;;;;;;;;;8300131;28;20629;-59
2023/05/29 05:23:57;;;;;;;5.40;2.15;;;;;;;;;;8299997;28;20413;-59
2023/05/29 05:27:57;;;;;;;4.40;2.45;;;;;;;;;;8297691;28;20029;-58
2023/05/29 05:31:57;;;;;;;4.45;2.50;;;;;;;;;;8299069;28;20751;-60
2023/05/29 05:35:57;;;;;;;5.13;2.30;;;;;;;;;;8300101;28;20029;-59
2023/05/29 05:40:00;;;;;;;4.10;2.33;;;;;;;;;;8302985;28;20033;-59
2023/05/29 05:44:00;;;;;;;3.40;2.55;;;;;;;;;;8299033;28;20355;-60
2023/05/29 05:48:01;;;;;;;5.13;2.70;;;;;;;;;;8299023;28;20042;-60
2023/05/29 05:52:01;;;;;;;4.13;2.40;;;;;;;;;;8299007;28;20500;-60
2023/05/29 05:56:01;;;;;;;6.32;2.58;;;;;;;;;;8301954;28;20017;-60
2023/05/29 06:00:12;;;;;;;5.40;2.43;;;;;;;;;;8299087;28;20029;-60
2023/05/29 06:04:13;;;;;;;4.40;2.40;;;;;;;;;;8299407;28;20076;-61
2023/05/29 06:08:13;;;;;;;3.10;2.50;;;;;;;;;;8297368;28;20020;-60
2023/05/29 06:12:13;;;;;;;4.68;2.42;;;;;;;;;;8299802;28;20322;-60
2023/05/29 06:16:13;;;;;;;5.90;2.45;;;;;;;;;;8297648;28;20608;-60
2023/05/29 06:20:13;;;;;;;4.70;2.45;;;;;;;;;;8297422;28;20025;-61
2023/05/29 06:24:14;;;;;;;4.50;2.22;;;;;;;;;;8297270;28;20027;-61
2023/05/29 06:28:14;;;;;;;3.20;2.40;;;;;;;;;;8298171;28;20071;-60
2023/05/29 06:32:14;;;;;;;6.40;2.40;;;;;;;;;;8297581;28;20171;-60
2023/05/29 06:36:15;;;;;;;4.13;2.40;;;;;;;;;;8298376;28;20584;-60
2023/05/29 06:40:16;;;;;;;3.35;2.40;;;;;;;;;;8295835;28;20028;-61
2023/05/29 06:44:16;;;;;;;5.45;2.40;;;;;;;;;;8296407;28;20025;-60
2023/05/29 06:48:16;;;;;;;4.82;2.40;;;;;;;;;;8297821;28;20152;-60
2023/05/29 06:52:16;;;;;;;4.63;2.47;;;;;;;;;;8296727;28;20031;-61
2023/05/29 06:56:16;;;;;;;4.43;2.58;;;;;;;;;;8297661;28;20033;-60
2023/05/29 07:00:17;;;;;;;3.35;2.47;;;;;;;;;;8294911;28;20021;-61
2023/05/29 07:04:17;;;;;;;6.85;2.67;;;;;;;;;;8295156;28;20146;-61
2023/05/29 07:08:17;;;;;;;3.80;2.50;;;;;;;;;;8298902;28;20031;-61
2023/05/29 07:12:17;;;;;;;4.07;2.40;;;;;;;;;;8297937;28;20405;-61
2023/05/29 07:16:18;;;;;;;4.75;2.60;;;;;;;;;;8294789;28;20037;-61
2023/05/29 07:20:20;;;;;;;4.38;2.55;;;;;;;;;;8296660;28;20025;-61
2023/05/29 07:24:20;;;;;;;4.53;2.67;;;;;;;;;;8296851;28;20025;-61
2023/05/29 07:28:20;;;;;;;6.10;2.42;;;;;;;;;;8311819;28;20022;-61
2023/05/29 07:32:21;;;;;;;5.20;2.63;;;;;;;;;;8296819;28;20048;-61
2023/05/29 07:36:21;;;;;;;3.70;2.60;;;;;;;;;;8294395;28;20017;-61
2023/05/29 07:40:22;;;;;;;6.93;2.65;;;;;;;;;;8295749;28;20037;-61
2023/05/29 07:44:22;;;;;;;7.90;2.67;;;;;;;;;;8297799;28;20037;-61
2023/05/29 07:48:22;;;;;;;5.40;2.67;;;;;;;;;;8294709;28;20124;-61
2023/05/29 07:52:22;;;;;;;2.55;2.10;;;;;;;;;;8296730;28;20148;-61
2023/05/29 07:56:23;;;;;;;4.10;2.40;;;;;;;;;;8295920;28;20316;-61
2023/05/29 08:00:24;;;;;;;2.80;2.10;;;;;;;;;;8294115;28;20144;-61
2023/05/29 08:04:24;;;;;;;5.63;2.42;;;;;;;;;;8295083;28;20040;-61
2023/05/29 08:08:25;;;;;;;3.95;2.65;;;;;;;;;;8299265;28;20025;-61
2023/05/29 08:12:25;;;;;;;4.50;2.57;;;;;;;;;;8302486;28;20026;-61
2023/05/29 08:16:27;;;;;;;3.97;2.25;;;;;;;;;;8302455;28;20092;-61
2023/05/29 08:20:27;;;;;;;3.40;2.70;;;;;;;;;;8300008;28;20133;-61
2023/05/29 08:24:27;;;;;;;3.88;2.45;;;;;;;;;;8302996;28;20096;-61
2023/05/29 08:28:28;;;;;;;5.38;2.40;;;;;;;;;;8301140;28;20017;-61
2023/05/29 08:32:28;;;;;;;5.90;2.80;;;;;;;;;;8302139;28;20096;-61
2023/05/29 08:36:28;;;;;;;3.83;2.70;;;;;;;;;;8303643;28;20028;-61
2023/05/29 08:40:28;;;;;;;5.53;2.50;;;;;;;;;;8302204;28;20032;-61
2023/05/29 08:44:29;;;;;;;4.65;2.60;;;;;;;;;;8299566;28;20029;-61
2023/05/29 08:48:30;;;;;;;7.20;2.85;;;;;;;;;;8299039;28;20111;-61
2023/05/29 08:52:33;;;;;;;4.70;2.50;;;;;;;;;;8303546;28;20500;-61
2023/05/29 08:56:34;;;;;;;4.15;2.65;;;;;;;;;;8301585;28;20064;-61
2023/05/29 09:00:34;;;;;;;3.97;2.40;;;;;;;;;;8298772;28;20091;-61
2023/05/29 09:04:34;;;;;;;3.67;2.30;;;;;;;;;;8300302;28;20018;-61
2023/05/29 09:08:35;;;;;;;6.95;2.90;;;;;;;;;;8301536;28;20032;-61
2023/05/29 09:12:36;;;;;;;4.28;2.35;;;;;;;;;;8300474;28;20026;-61
2023/05/29 09:16:41;;;;;;;5.00;2.63;;;;;;;;;;8299299;28;20041;-61
2023/05/29 09:20:41;;;;;;;4.68;2.70;;;;;;;;;;8299419;28;20057;-61
2023/05/29 09:24:42;;;;;;;4.10;2.47;;;;;;;;;;8302137;28;20029;-62
2023/05/29 09:28:45;;;;;;;5.60;2.67;;;;;;;;;;8297093;28;20128;-61
2023/05/29 09:32:53;;;;;;;2.95;2.55;;;;;;;;;;8300268;28;20049;-61
2023/05/29 09:36:53;;;;;;;2.63;2.40;;;;;;;;;;8300656;28;20615;-61
2023/05/29 09:40:58;;;;;;;5.60;2.50;;;;;;;;;;8298240;28;20026;-61
2023/05/29 09:44:59;;;;;;;4.55;2.55;;;;;;;;;;8299940;28;20945;-61
2023/05/29 09:49:07;;;;;;;5.50;2.60;;;;;;;;;;8299198;28;20164;-61
2023/05/29 09:53:24;;;;;;;5.13;2.72;;;;;;;;;;8303134;28;20087;-61
2023/05/29 09:57:25;;;;;;;4.00;2.60;;;;;;;;;;8298890;28;20020;-61
2023/05/29 10:01:25;;;;;;;4.80;2.50;;;;;;;;;;8300730;28;20051;-61
2023/05/29 10:05:26;;;;;;;4.03;2.47;;;;;;;;;;8299527;28;20924;-61
2023/05/29 10:09:27;;;;;;;5.53;2.77;;;;;;;;;;8296403;28;20025;-61
2023/05/29 10:13:31;;;;;;;5.63;4.35;;;;;;;;;;8295068;28;20272;-61
2023/05/29 10:17:35;;;;;;;7.97;5.05;;;;;;;;;;8298916;28;20063;-61
2023/05/29 10:21:36;;;;;;;8.38;4.45;;;;;;;;;;8296955;28;20481;-61
2023/05/29 10:25:38;;;;;;;3.83;2.37;;;;;;;;;;8300883;28;20021;-61
2023/05/29 10:29:55;;;;;;;4.33;2.67;;;;;;;;;;8296273;28;20276;-62
2023/05/29 10:33:58;;;;;;;5.25;2.78;;;;;;;;;;8296893;28;20044;-61
2023/05/29 10:38:08;;;;;;;4.20;2.40;;;;;;;;;;8298995;28;20029;-61
2023/05/29 10:42:27;;;;;;;3.00;2.45;;;;;;;;;;8300533;28;20043;-61
2023/05/29 10:46:47;;;;;;;3.92;2.35;;;;;;;;;;8298127;28;20033;-61
2023/05/29 10:50:48;;;;;;;5.32;2.58;;;;;;;;;;8298516;28;20039;-61
2023/05/29 10:54:52;;;;;;;3.13;2.28;;;;;;;;;;8297819;28;20025;-61
2023/05/29 10:58:54;;;;;;;5.45;2.72;;;;;;;;;;8296127;28;20092;-61
2023/05/29 11:02:55;;;;;;;5.28;2.53;;;;;;;;;;8297215;28;20747;-61
2023/05/29 11:06:55;;;;;;;6.28;2.45;;;;;;;;;;8295327;28;20500;-61
2023/05/29 11:10:56;;;;;;;3.53;2.38;;;;;;;;;;8293366;28;20534;-61
2023/05/29 11:15:02;;;;;;;6.07;2.43;;;;;;;;;;8297119;28;20030;-62
2023/05/29 11:19:06;;;;;;;4.78;2.78;;;;;;;;;;8295538;28;20037;-61
2023/05/29 11:23:09;;;;;;;5.82;2.45;;;;;;;;;;8296726;28;20022;-62
2023/05/29 11:27:10;;;;;;;5.88;2.50;;;;;;;;;;8297270;28;20013;-61
2023/05/29 11:31:10;;;;;;;5.63;2.70;;;;;;;;;;8294722;28;20049;-61
2023/05/29 11:35:12;;;;;;;6.20;2.47;;;;;;;;;;8291924;28;20024;-61
2023/05/29 11:39:13;;;;;;;5.72;2.70;;;;;;;;;;8292662;28;20029;-61
2023/05/29 11:43:13;;;;;;;3.28;2.50;;;;;;;;;;8296944;28;20533;-61
2023/05/29 11:47:15;;;;;;;5.67;2.53;;;;;;;;;;8300411;28;20171;-61
2023/05/29 11:51:15;;;;;;;4.03;2.30;;;;;;;;;;8299255;28;20020;-61
2023/05/29 11:55:15;;;;;;;3.78;2.58;;;;;;;;;;8300478;28;20021;-61
2023/05/29 11:59:15;;;;;;;4.28;2.30;;;;;;;;;;8297775;28;20052;-61
2023/05/29 12:03:16;;;;;;;5.13;2.60;;;;;;;;;;8297880;28;20179;-61
2023/05/29 12:07:19;;;;;;;5.28;2.83;;;;;;;;;;8299284;28;20025;-62
2023/05/29 12:11:23;;;;;;;6.65;2.53;;;;;;;;;;8297822;28;21047;-62
2023/05/29 12:15:24;;;;;;;6.55;2.50;;;;;;;;;;8294417;28;20898;-61
2023/05/29 12:19:24;;;;;;;4.03;2.58;;;;;;;;;;8295800;28;20642;-61
2023/05/29 12:23:24;;;;;;;4.30;2.43;;;;;;;;;;8296837;28;20021;-61
2023/05/29 12:27:25;;;;;;;4.07;2.58;;;;;;;;;;8296145;28;20033;-62
2023/05/29 12:31:29;;;;;;;4.07;2.55;;;;;;;;;;8290389;28;20049;-62
2023/05/29 12:35:29;;;;;;;3.55;2.50;;;;;;;;;;8290783;28;20021;-62
2023/05/29 12:39:30;;;;;;;3.60;2.40;;;;;;;;;;8293158;28;20605;-61
2023/05/29 12:43:30;;;;;;;2.45;2.17;;;;;;;;;;8294083;28;20171;-61
2023/05/29 12:47:31;;;;;;;3.63;2.40;;;;;;;;;;8297184;28;20040;-62
2023/05/29 12:51:31;;;;;;;4.43;2.65;;;;;;;;;;8294763;28;20025;-62
2023/05/29 12:55:39;;;;;;;5.22;2.45;;;;;;;;;;8293410;28;20164;-61
2023/05/29 12:59:40;;;;;;;2.80;2.30;;;;;;;;;;8297314;28;21010;-62
2023/05/29 13:03:40;;;;;;;3.65;2.40;;;;;;;;;;8297587;28;20933;-61
2023/05/29 13:07:41;;;;;;;3.80;2.33;;;;;;;;;;8295569;28;21248;-62
2023/05/29 13:11:41;;;;;;;3.80;2.42;;;;;;;;;;8298737;28;20048;-62
2023/05/29 13:15:42;;;;;;;4.55;2.50;;;;;;;;;;8296977;28;20093;-62
2023/05/29 13:19:42;;;;;;;3.28;2.50;;;;;;;;;;8296987;28;20025;-62
2023/05/29 13:23:42;;;;;;;8.07;2.80;;;;;;;;;;8294366;28;20041;-61
2023/05/29 13:27:43;;;;;;;5.20;2.40;;;;;;;;;;8293790;28;20025;-62
2023/05/29 13:31:43;;;;;;;3.57;2.50;;;;;;;;;;8293448;28;20959;-61
2023/05/29 13:35:44;;;;;;;3.23;2.40;;;;;;;;;;8293924;28;20529;-61
2023/05/29 13:39:44;;;;;;;3.40;2.20;;;;;;;;;;8293718;28;20735;-61
2023/05/29 13:43:44;;;;;;;4.63;2.40;;;;;;;;;;8291006;28;20031;-61
2023/05/29 13:47:45;;;;;;;4.43;2.45;;;;;;;;;;8292486;28;20049;-61
2023/05/29 13:51:46;;;;;;;3.50;2.30;;;;;;;;;;8296458;28;20203;-61
2023/05/29 13:55:46;;;;;;;6.25;2.70;;;;;;;;;;8293702;28;20067;-61
2023/05/29 13:59:47;;;;;;;3.67;2.50;;;;;;;;;;8288150;28;20056;-61
2023/05/29 14:03:47;;;;;;;4.53;2.58;;;;;;;;;;8290912;28;20080;-62
2023/05/29 14:07:47;;;;;;;4.60;2.30;;;;;;;;;;8289926;28;20060;-61
2023/05/29 14:11:47;;;;;;;3.60;2.58;;;;;;;;;;8294062;28;20922;-62
2023/05/29 14:15:49;;;;;;;4.23;2.73;;;;;;;;;;8291231;28;20400;-62
2023/05/29 14:19:49;;;;;;;3.13;2.43;;;;;;;;;;8293732;28;20337;-61
2023/05/29 14:23:49;;;;;;;4.20;2.45;;;;;;;;;;8292102;28;20090;-61
2023/05/29 14:27:49;;;;;;;2.83;2.40;;;;;;;;;;8288942;28;20569;-61
2023/05/29 14:31:50;;;;;;;5.32;2.35;;;;;;;;;;8292008;28;20061;-62
2023/05/29 14:35:50;;;;;;;5.07;2.67;;;;;;;;;;8289577;28;20059;-62
2023/05/29 14:39:50;;;;;;;6.47;2.58;;;;;;;;;;8290960;28;20056;-62
2023/05/29 14:43:51;;;;;;;4.82;2.25;;;;;;;;;;8293095;28;20126;-61
2023/05/29 14:47:51;;;;;;;5.88;2.60;;;;;;;;;;8290158;28;20110;-62
2023/05/29 14:51:52;;;;;;;3.90;2.30;;;;;;;;;;8291393;28;20029;-61
2023/05/29 14:55:52;;;;;;;5.05;2.80;;;;;;;;;;8291495;28;20715;-61
2023/05/29 14:59:52;;;;;;;4.50;2.70;;;;;;;;;;8286065;28;20771;-61
2023/05/29 15:03:52;;;;;;;4.20;2.20;;;;;;;;;;8286067;28;20495;-61
2023/05/29 15:07:54;;;;;;;4.97;2.40;;;;;;;;;;8287937;28;20025;-62
2023/05/29 15:11:54;;;;;;;4.27;2.40;;;;;;;;;;8289350;28;20811;-61
2023/05/29 15:15:54;;;;;;;6.53;3.33;;;;;;;;;;8288995;28;20037;-61
2023/05/29 15:19:56;;;;;;;3.45;2.45;;;;;;;;;;8288422;28;20707;-61
2023/05/29 15:23:56;;;;;;;6.03;4.47;;;;;;;;;;8289243;28;20033;-62
2023/05/29 15:27:56;;;;;;;11.88;6.65;;;;;;;;;;8288598;28;20332;-61
2023/05/29 15:31:57;;;;;;;5.72;2.92;;;;;;;;;;8289223;28;20033;-61
2023/05/29 15:35:57;;;;;;;4.70;2.95;;;;;;;;;;8289403;28;20040;-62
2023/05/29 15:39:57;;;;;;;7.18;4.43;;;;;;;;;;8288090;28;20123;-62
2023/05/29 15:43:58;;;;;;;5.57;2.80;;;;;;;;;;8288390;28;20503;-61
2023/05/29 15:47:58;;;;;;;4.33;2.80;;;;;;;;;;8290258;28;20611;-61
2023/05/29 15:51:58;;;;;;;4.22;2.53;;;;;;;;;;8287921;28;20356;-61
2023/05/29 15:55:58;;;;;;;4.05;2.53;;;;;;;;;;8290166;28;20028;-61
2023/05/29 15:59:58;;;;;;;3.13;2.40;;;;;;;;;;8288088;28;20128;-61
2023/05/29 16:03:59;;;;;;;4.60;2.78;;;;;;;;;;8288903;28;20785;-61
2023/05/29 16:07:59;;;;;;;4.53;2.42;;;;;;;;;;8289158;28;20367;-61
2023/05/29 16:11:59;;;;;;;3.17;2.50;;;;;;;;;;8288869;28;20021;-62
2023/05/29 16:15:59;;;;;;;3.72;2.50;;;;;;;;;;8287359;28;20281;-61
2023/05/29 16:20:00;;;;;;;8.65;5.45;;;;;;;;;;8288572;28;20064;-61
2023/05/29 16:24:00;;;;;;;4.72;2.75;;;;;;;;;;8289591;28;20378;-61
2023/05/29 16:28:00;;;;;;;5.15;2.80;;;;;;;;;;8287776;28;20032;-61
2023/05/29 16:32:01;;;;;;;4.15;2.58;;;;;;;;;;8291363;28;20037;-61
2023/05/29 16:36:01;;;;;;;3.38;2.70;;;;;;;;;;8294959;28;20122;-61
2023/05/29 16:40:02;;;;;;;6.50;2.78;;;;;;;;;;8293286;28;20058;-61
2023/05/29 16:44:03;;;;;;;5.40;3.10;;;;;;;;;;8295242;28;20035;-61
2023/05/29 16:48:03;;;;;;;5.30;3.00;;;;;;;;;;8292989;28;20482;-61
2023/05/29 16:52:04;;;;;;;4.53;2.90;;;;;;;;;;8293075;28;20100;-61
2023/05/29 16:56:06;;;;;;;4.70;2.43;;;;;;;;;;8292871;28;20025;-61
2023/05/29 17:00:07;;;;;;;4.07;2.95;;;;;;;;;;8293289;28;20407;-61
2023/05/29 17:04:10;;;;;;;4.95;2.70;;;;;;;;;;8291589;28;20029;-61
2023/05/29 17:08:10;;;;;;;;;;;;;;;;;;8290101;28;20029;-61
2023/05/29 17:12:12;;;;;;;3.55;2.70;;;;;;;;;;8295254;28;20148;-62
2023/05/29 17:16:12;;;;;;;3.60;2.65;;;;;;;;;;8294212;28;20487;-61
2023/05/29 17:20:14;;;;;;;3.55;2.85;;;;;;;;;;8291837;28;20032;-61
2023/05/29 17:24:15;;;;;;;6.95;2.72;;;;;;;;;;8293195;28;20056;-61
2023/05/29 17:28:15;;;;;;;4.03;3.00;;;;;;;;;;8291244;28;20434;-61
2023/05/29 17:32:15;;;;;;;7.18;2.78;;;;;;;;;;8291798;28;20033;-61
2023/05/29 17:36:16;;;;;;;3.28;2.88;;;;;;;;;;8293438;28;20402;-61
2023/05/29 17:40:16;;;;;;;4.75;3.28;;;;;;;;;;8293449;28;20094;-61
2023/05/29 17:44:16;;;;;;;4.80;3.15;;;;;;;;;;8290256;28;20037;-61
2023/05/29 17:48:16;;;;;;;4.72;3.20;;;;;;;;;;8291505;28;20045;-61
2023/05/29 17:52:16;;;;;;;5.30;2.80;;;;;;;;;;8292202;28;20128;-61
2023/05/29 17:56:17;;;;;;;4.55;2.75;;;;;;;;;;8291310;28;20552;-61
2023/05/29 18:00:18;;;;;;;3.72;2.97;;;;;;;;;;8289863;28;20057;-61
2023/05/29 18:04:18;;;;;;;5.32;2.80;;;;;;;;;;8291771;28;20333;-61
2023/05/29 18:08:18;;;;;;;3.78;2.85;;;;;;;;;;8291527;28;20386;-61
2023/05/29 18:12:19;;;;;;;4.05;2.80;;;;;;;;;;8293568;28;20108;-61
2023/05/29 18:16:19;;;;;;;4.07;2.92;;;;;;;;;;8291336;28;20494;-62
2023/05/29 18:20:20;;;;;;;3.88;2.63;;;;;;;;;;8289655;28;20145;-61
2023/05/29 18:24:20;;;;;;;4.53;2.70;;;;;;;;;;8291800;28;20052;-62
2023/05/29 18:28:20;;;;;;;2.97;2.67;;;;;;;;;;8290337;28;20469;-61
2023/05/29 18:32:20;;;;;;;5.10;2.60;;;;;;;;;;8290815;28;20337;-61
2023/05/29 18:36:21;;;;;;;3.65;2.67;;;;;;;;;;8291562;28;20033;-61
2023/05/29 18:40:21;;;;;;;4.65;2.90;;;;;;;;;;8289083;28;20536;-61
2023/05/29 18:44:21;;;;;;;5.05;2.90;;;;;;;;;;8290169;28;20552;-61
2023/05/29 18:48:21;;;;;;;4.43;2.60;;;;;;;;;;8289095;28;20219;-61
2023/05/29 18:52:22;;;;;;;5.68;3.00;;;;;;;;;;8289857;28;20608;-61
2023/05/29 18:56:24;;;;;;;3.97;2.53;;;;;;;;;;8289014;28;20025;-61
2023/05/29 19:00:24;;;;;;;4.70;2.70;;;;;;;;;;8289098;28;20037;-61
2023/05/29 19:04:24;;;;;;;4.18;2.47;;;;;;;;;;8292744;28;20033;-61
2023/05/29 19:08:25;;;;;;;4.63;2.60;;;;;;;;;;8289876;28;21069;-60
2023/05/29 19:12:25;;;;;;;4.03;3.05;;;;;;;;;;8290077;28;20020;-61
2023/05/29 19:16:25;;;;;;;6.00;2.70;;;;;;;;;;8290609;28;20399;-61
2023/05/29 19:20:25;;;;;;;6.22;2.97;;;;;;;;;;8285928;28;20471;-61
2023/05/29 19:24:26;;;;;;;5.03;2.58;;;;;;;;;;8290641;28;20033;-61
2023/05/29 19:28:26;;;;;;;5.10;2.75;;;;;;;;;;8288570;28;20025;-60
2023/05/29 19:32:27;;;;;;;5.53;2.80;;;;;;;;;;8288457;28;20687;-61
2023/05/29 19:36:27;;;;;;;4.78;2.72;;;;;;;;;;8289237;28;20064;-61
2023/05/29 19:40:27;;;;;;;4.65;2.67;;;;;;;;;;8288647;28;20032;-60
2023/05/29 19:44:27;;;;;;;6.50;2.85;;;;;;;;;;8289367;28;20037;-60
2023/05/29 19:48:27;;;;;;;4.97;2.50;;;;;;;;;;8288790;28;21147;-60
2023/05/29 19:52:27;;;;;;;8.45;3.17;;;;;;;;;;8286754;28;20674;-60
2023/05/29 19:56:28;;;;;;;5.30;2.80;;;;;;;;;;8289864;28;20029;-60
2023/05/29 20:00:28;;;;;;;4.68;2.80;;;;;;;;;;8289586;28;20171;-60
2023/05/29 20:04:29;;;;;;;7.32;3.05;;;;;;;;;;8291279;28;20064;-60
2023/05/29 20:08:29;;;;;;;7.10;2.97;;;;;;;;;;8295726;28;20609;-60
2023/05/29 20:12:30;;;;;;;5.75;2.97;;;;;;;;;;8294559;28;20083;-60
2023/05/29 20:16:30;;;;;;;6.75;2.70;;;;;;;;;;8293303;28;20449;-60
2023/05/29 20:20:30;;;;;;;4.60;2.75;;;;;;;;;;8292148;28;20037;-60
2023/05/29 20:24:31;;;;;;;6.97;2.97;;;;;;;;;;8297063;28;20117;-60
2023/05/29 20:28:31;;;;;;;5.40;3.05;;;;;;;;;;8295128;28;20212;-60
2023/05/29 20:32:31;;;;;;;5.65;3.00;;;;;;;;;;8298379;28;20716;-60
2023/05/29 20:36:33;;;;;;;7.57;3.00;;;;;;;;;;8298056;28;20017;-60
2023/05/29 20:40:35;;;;;;;7.75;2.97;;;;;;;;;;8299719;28;20191;-60
2023/05/29 20:44:36;;;;;;;7.80;2.88;;;;;;;;;;8299375;28;20079;-60
2023/05/29 20:48:36;;;;;;;4.03;2.50;;;;;;;;;;8295530;28;20120;-60
2023/05/29 20:52:36;;;;;;;6.85;2.75;;;;;;;;;;8299168;28;20162;-60
2023/05/29 20:56:37;;;;;;;6.95;2.90;;;;;;;;;;8299693;28;20409;-60
2023/05/29 21:00:37;;;;;;;6.85;2.53;;;;;;;;;;8298741;28;20034;-61
2023/05/29 21:04:38;;;;;;;9.27;2.88;;;;;;;;;;8296308;28;20151;-60
2023/05/29 21:08:38;;;;;;;6.50;3.00;;;;;;;;;;8296459;28;20694;-60
2023/05/29 21:12:38;;;;;;;6.63;2.92;;;;;;;;;;8299117;28;20032;-60
2023/05/29 21:16:38;;;;;;;7.80;2.53;;;;;;;;;;8297113;28;20037;-60
2023/05/29 21:20:39;;;;;;;5.68;2.72;;;;;;;;;;8296948;28;20413;-60
2023/05/29 21:24:39;;;;;;;8.80;2.78;;;;;;;;;;8298300;28;20103;-60
2023/05/29 21:28:39;;;;;;;6.72;2.53;;;;;;;;;;8296731;28;20402;-60
2023/05/29 21:32:41;;;;;;;6.07;2.65;;;;;;;;;;8299119;28;20032;-60
2023/05/29 21:36:41;;;;;;;6.88;3.00;;;;;;;;;;8296717;28;20166;-61
2023/05/29 21:40:41;;;;;;;6.25;2.97;;;;;;;;;;8297578;28;20438;-60
2023/05/29 21:44:43;;;;;;;7.80;3.17;;;;;;;;;;8296958;28;20025;-61
2023/05/29 21:48:43;;;;;;;5.80;2.55;;;;;;;;;;8295124;28;20155;-60
2023/05/29 21:52:44;;;;;;;7.07;3.00;;;;;;;;;;8295136;28;20071;-60
2023/05/29 21:56:45;;;;;;;11.23;3.70;;;;;;;;;;8298237;28;20529;-60
2023/05/29 22:00:45;;;;;;;4.45;2.53;;;;;;;;;;8296471;28;20044;-61
2023/05/29 22:04:46;;;;;;;7.55;2.90;;;;;;;;;;8291609;28;20421;-60
2023/05/29 22:08:46;;;;;;;8.05;2.75;;;;;;;;;;8292795;28;20036;-61
2023/05/29 22:12:48;;;;;;;8.68;3.22;;;;;;;;;;8295618;28;20033;-59
2023/05/29 22:16:48;;;;;;;6.60;2.90;;;;;;;;;;8293155;28;20045;-60
2023/05/29 22:20:49;;;;;;;5.07;2.60;;;;;;;;;;8293973;28;20028;-60
2023/05/29 22:24:50;;;;;;;7.67;3.00;;;;;;;;;;8296363;28;20109;-60
2023/05/29 22:28:52;;;;;;;6.78;2.55;;;;;;;;;;8294512;28;20307;-60
2023/05/29 22:32:52;;;;;;;4.57;2.30;;;;;;;;;;8294039;28;20039;-61
2023/05/29 22:36:52;;;;;;;5.70;2.40;;;;;;;;;;8291067;28;21070;-60
2023/05/29 22:40:52;;;;;;;6.38;2.35;;;;;;;;;;8295164;28;20036;-59
2023/05/29 22:44:52;;;;;;;4.43;2.53;;;;;;;;;;8295372;28;20054;-60
2023/05/29 22:48:53;;;;;;;8.52;2.83;;;;;;;;;;8293371;28;20529;-60
2023/05/29 22:52:53;;;;;;;7.07;2.60;;;;;;;;;;8296637;28;20522;-60
2023/05/29 22:56:56;;;;;;;6.72;2.45;;;;;;;;;;8295795;28;20037;-60
2023/05/29 23:00:56;;;;;;;5.97;2.50;;;;;;;;;;8295165;28;20398;-60
2023/05/29 23:04:56;;;;;;;6.45;2.35;;;;;;;;;;8294053;28;20033;-59
2023/05/29 23:08:56;;;;;;;6.60;2.47;;;;;;;;;;8293871;28;20038;-59
2023/05/29 23:12:57;;;;;;;7.72;2.60;;;;;;;;;;8292327;28;20095;-60
2023/05/29 23:16:57;;;;;;;5.20;2.45;;;;;;;;;;8294173;28;20071;-60
2023/05/29 23:20:57;;;;;;;7.35;2.58;;;;;;;;;;8293651;28;20048;-60
2023/05/29 23:24:58;;;;;;;5.05;2.25;;;;;;;;;;8296566;28;20033;-60
2023/05/29 23:28:58;;;;;;;4.05;2.42;;;;;;;;;;8295400;28;20068;-60
2023/05/29 23:32:58;;;;;;;6.47;2.42;;;;;;;;;;8295398;28;20986;-60
2023/05/29 23:36:58;;;;;;;4.65;2.22;;;;;;;;;;8295390;28;20021;-60
2023/05/29 23:40:59;;;;;;;5.57;2.22;;;;;;;;;;8303903;28;20672;-60
2023/05/29 23:45:00;;;;;;;6.22;2.10;;;;;;;;;;8303818;28;20099;-60
2023/05/29 23:49:00;;;;;;;3.28;2.03;;;;;;;;;;8299715;28;20755;-60
2023/05/29 23:53:01;;;;;;;6.32;2.20;;;;;;;;;;8303379;28;20040;-60
2023/05/29 23:57:01;;;;;;;6.78;2.65;;;;;;;;;;8303758;28;20107;-60
